Time;durP1;ratioP1;P1;durP2;ratioP2;P2;SDS_P1;SDS_P2;PMS_P1;PMS_P2;Temp;Humidity;BMP_temperature;BMP_pressure;BME280_temperature;BME280_humidity;BME280_pressure;Samples;Min_cycle;Max_cycle;Signal;HPM_P1;HPM_P2
2022/07/15 00:01:57;;;;;;;4.97;3.63;;;;;;;15.10;72.35;97706.53;10374940;28;20483;-55
2022/07/15 00:06:56;;;;;;;;;;;;;;;14.95;73.06;97708.56;10374175;28;20683;-55
2022/07/15 00:11:58;;;;;;;5.40;3.05;;;;;;;14.92;73.26;97692.06;10375221;28;20370;-55
2022/07/15 00:16:56;;;;;;;4.93;2.95;;;;;;;14.89;72.84;97689.53;10374202;28;20060;-55
2022/07/15 00:21:56;;;;;;;;;;;;;;;14.82;73.69;97689.63;10367020;28;20084;-55
2022/07/15 00:26:56;;;;;;;4.13;3.05;;;;;;;14.81;73.90;97692.31;10333636;28;19948;-55
2022/07/15 00:31:55;;;;;;;4.95;3.33;;;;;;;14.76;74.14;97704.59;10336063;28;20129;-55
2022/07/15 00:36:54;;;;;;;;;;;;;;;14.60;76.04;97698.75;10336153;28;20045;-55
2022/07/15 00:41:53;;;;;;;6.78;3.70;;;;;;;14.50;75.99;97690.22;10335724;28;20384;-55
2022/07/15 00:46:53;;;;;;;6.38;3.70;;;;;;;14.46;75.85;97687.69;10336245;28;20499;-55
2022/07/15 00:51:55;;;;;;;7.85;3.47;;;;;;;14.43;75.66;97690.34;10335293;28;20496;-55
2022/07/15 00:56:56;;;;;;;7.30;3.72;;;;;;;14.49;75.74;97692.84;10335249;28;20068;-55
2022/07/15 01:01:56;;;;;;;6.40;3.60;;;;;;;14.48;75.65;97683.31;10336427;28;20072;-55
2022/07/15 01:06:55;;;;;;;7.43;4.03;;;;;;;14.44;76.31;97682.50;10334898;28;20057;-55
2022/07/15 01:11:54;;;;;;;;;;;;;;;14.39;76.38;97682.56;10335478;28;20068;-55
2022/07/15 01:16:53;;;;;;;5.60;3.47;;;;;;;14.34;76.27;97676.56;10353462;28;19995;-55
2022/07/15 01:21:52;;;;;;;5.22;3.63;;;;;;;14.29;76.21;97667.97;10375389;28;20041;-55
2022/07/15 01:26:51;;;;;;;8.80;4.00;;;;;;;14.26;76.08;97667.13;10374869;28;20503;-54
2022/07/15 01:31:50;;;;;;;6.63;3.75;;;;;;;14.23;76.46;97662.84;10372311;28;20028;-55
2022/07/15 01:36:49;;;;;;;5.30;4.00;;;;;;;14.18;77.23;97664.66;10371818;28;20076;-55
2022/07/15 01:41:48;;;;;;;4.47;3.35;;;;;;;14.18;77.32;97662.06;10374889;28;20087;-54
2022/07/15 01:46:47;;;;;;;5.55;3.55;;;;;;;14.16;77.18;97640.34;10380766;28;20048;-55
2022/07/15 01:51:46;;;;;;;7.35;3.97;;;;;;;14.13;77.61;97651.69;10379581;28;20078;-55
2022/07/15 01:56:45;;;;;;;7.75;3.60;;;;;;;14.03;77.89;97638.81;10379868;28;20487;-55
2022/07/15 02:01:45;;;;;;;7.20;4.13;;;;;;;13.96;78.40;97649.38;10380339;28;20033;-55
2022/07/15 02:06:44;;;;;;;5.45;3.75;;;;;;;13.92;79.08;97658.13;10379170;28;20068;-55
2022/07/15 02:11:43;;;;;;;7.53;4.18;;;;;;;13.77;79.79;97647.94;10377850;28;20512;-55
2022/07/15 02:16:42;;;;;;;8.68;4.60;;;;;;;13.61;80.66;97656.88;10378729;28;20084;-55
2022/07/15 02:21:41;;;;;;;7.40;4.55;;;;;;;13.51;80.75;97661.31;10372496;28;20061;-55
2022/07/15 02:26:40;;;;;;;10.70;5.25;;;;;;;13.21;81.77;97673.03;10337884;28;20080;-55
2022/07/15 02:31:40;;;;;;;6.05;4.18;;;;;;;13.09;81.46;97663.63;10337399;28;20511;-55
2022/07/15 02:36:39;;;;;;;6.57;4.75;;;;;;;13.02;81.83;97661.97;10337433;28;20065;-55
2022/07/15 02:41:38;;;;;;;8.27;4.68;;;;;;;12.99;81.59;97672.44;10336900;28;20061;-55
2022/07/15 02:46:37;;;;;;;5.63;4.68;;;;;;;12.93;81.67;97671.63;10337842;28;20592;-55
2022/07/15 02:51:36;;;;;;;9.52;4.95;;;;;;;12.84;82.46;97671.75;10336867;28;20437;-55
2022/07/15 02:56:35;;;;;;;5.43;4.68;;;;;;;12.79;82.64;97670.94;10336386;28;20034;-54
2022/07/15 03:01:33;;;;;;;5.80;4.57;;;;;;;12.75;82.64;97666.63;10336757;28;20114;-55
2022/07/15 03:06:33;;;;;;;10.63;4.78;;;;;;;12.76;82.55;97665.75;10337340;28;20053;-55
2022/07/15 03:11:32;;;;;;;8.52;5.22;;;;;;;12.80;82.21;97667.44;10336427;28;20068;-55
2022/07/15 03:16:31;;;;;;;8.02;4.75;;;;;;;12.86;82.17;97664.78;10350454;28;20045;-55
2022/07/15 03:21:30;;;;;;;9.15;5.45;;;;;;;12.89;82.17;97651.72;10376784;28;20061;-54
2022/07/15 03:26:29;;;;;;;8.98;4.60;;;;;;;12.97;82.18;97653.34;10376471;28;20032;-55
2022/07/15 03:31:28;;;;;;;6.28;4.35;;;;;;;13.01;82.40;97650.69;10379688;28;20041;-55
2022/07/15 03:36:27;;;;;;;9.65;5.88;;;;;;;13.02;82.81;97648.94;10379667;28;20131;-55
2022/07/15 03:41:26;;;;;;;10.07;4.97;;;;;;;13.09;82.88;97653.19;10378959;28;20080;-55
2022/07/15 03:46:27;;;;;;;9.02;5.00;;;;;;;13.10;83.29;97644.50;10378915;28;20037;-55
2022/07/15 03:51:30;;;;;;;8.13;5.25;;;;;;;13.08;83.37;97644.53;10379917;28;20072;-55
2022/07/15 03:56:30;;;;;;;8.38;4.93;;;;;;;12.99;83.44;97652.44;10378432;28;20073;-54
2022/07/15 04:01:29;;;;;;;6.97;4.95;;;;;;;12.98;83.80;97658.56;10378399;28;20064;-54
2022/07/15 04:06:28;;;;;;;12.73;7.07;;;;;;;12.98;83.99;97650.75;10377181;28;20064;-55
2022/07/15 04:11:27;;;;;;;11.13;7.85;;;;;;;12.97;84.01;97649.00;10371729;28;20107;-54
2022/07/15 04:16:28;;;;;;;15.10;8.27;;;;;;;12.99;84.21;97657.66;10377197;28;20036;-54
2022/07/15 04:21:27;;;;;;;13.23;8.57;;;;;;;13.13;83.91;97655.75;10373929;28;20567;-54
2022/07/15 04:26:27;;;;;;;10.93;7.43;;;;;;;13.30;83.65;97649.44;10337037;28;20550;-54
2022/07/15 04:31:26;;;;;;;8.52;6.85;;;;;;;13.49;83.32;97655.25;10333175;28;20069;-55
2022/07/15 04:36:25;;;;;;;14.57;7.65;;;;;;;13.71;83.12;97654.09;10333014;28;20045;-54
2022/07/15 04:41:24;;;;;;;16.15;9.13;;;;;;;13.88;82.75;97651.22;10330401;28;20049;-55
2022/07/15 04:46:23;;;;;;;12.82;7.20;;;;;;;14.03;82.39;97657.97;10368759;28;20103;-55
2022/07/15 04:51:22;;;;;;;13.38;7.53;;;;;;;14.31;81.27;97640.09;10369126;28;20112;-55
2022/07/15 04:56:21;;;;;;;15.05;6.32;;;;;;;14.51;80.44;97651.91;10372767;28;20029;-55
2022/07/15 05:01:20;;;;;;;10.25;6.35;;;;;;;14.78;80.02;97647.94;10372508;28;20064;-55
2022/07/15 05:06:19;;;;;;;12.13;6.00;;;;;;;15.06;79.34;97650.88;10365080;28;20033;-55
2022/07/15 05:11:18;;;;;;;;;;;;;;;15.34;79.22;97645.03;10363878;28;20504;-55
2022/07/15 05:16:17;;;;;;;9.70;6.10;;;;;;;15.66;78.36;97641.72;10371735;28;19957;-55
2022/07/15 05:21:16;;;;;;;;;;;;;;;15.98;77.67;97637.50;10364850;28;20072;-55
2022/07/15 05:26:15;;;;;;;13.52;5.88;;;;;;;16.32;76.75;97642.75;10369254;28;20011;-55
2022/07/15 05:31:14;;;;;;;;;;;;;;;16.66;75.96;97636.63;10349206;28;20045;-55
2022/07/15 05:36:14;;;;;;;14.50;5.13;;;;;;;16.92;72.77;97641.16;10356817;28;19913;-55
2022/07/15 05:41:13;;;;;;;9.65;4.80;;;;;;;17.10;71.09;97638.03;10349493;28;20092;-55
2022/07/15 05:46:12;;;;;;;;;;;;;;;17.35;70.24;97638.16;10359557;28;20061;-55
2022/07/15 05:51:11;;;;;;;10.07;5.37;;;;;;;17.60;69.44;97637.41;10359239;28;20363;-55
2022/07/15 05:56:10;;;;;;;8.70;5.88;;;;;;;17.90;68.66;97632.97;10347256;28;20152;-55
2022/07/15 06:01:09;;;;;;;9.43;6.03;;;;;;;18.15;65.60;97633.03;10348237;28;20069;-55
2022/07/15 06:06:08;;;;;;;17.17;12.52;;;;;;;18.35;63.87;97624.47;10367624;28;20163;-55
2022/07/15 06:11:08;;;;;;;10.20;6.95;;;;;;;18.61;64.63;97622.69;10335345;28;20076;-54
2022/07/15 06:16:07;;;;;;;9.00;3.72;;;;;;;18.90;63.03;97619.06;10363804;28;20075;-54
2022/07/15 06:21:06;;;;;;;9.85;4.25;;;;;;;19.18;58.88;97625.91;10339521;28;20076;-57
2022/07/15 06:26:05;;;;;;;8.68;4.30;;;;;;;19.42;57.11;97622.34;10362243;28;20126;-55
2022/07/15 06:31:04;;;;;;;10.75;4.20;;;;;;;19.48;56.16;97623.88;10367509;28;20448;-55
2022/07/15 06:36:04;;;;;;;8.82;3.80;;;;;;;19.71;56.25;97616.91;10380355;28;20388;-55
2022/07/15 06:41:03;;;;;;;8.63;3.63;;;;;;;19.97;55.65;97621.09;10378600;28;20583;-55
2022/07/15 06:46:02;;;;;;;11.70;3.97;;;;;;;20.25;54.97;97612.91;10374544;28;20677;-56
2022/07/15 06:51:01;;;;;;;9.35;4.10;;;;;;;20.56;53.40;97609.84;10364041;28;20067;-56
2022/07/15 06:56:00;;;;;;;6.05;3.33;;;;;;;20.86;52.78;97617.31;10360757;28;20029;-56
2022/07/15 07:00:59;;;;;;;5.03;2.90;;;;;;;21.13;51.79;97608.16;10369627;28;20044;-56
2022/07/15 07:05:58;;;;;;;4.55;3.35;;;;;;;21.44;51.09;97606.75;10376124;28;20083;-56
2022/07/15 07:10:57;;;;;;;6.50;3.53;;;;;;;21.54;47.94;97608.03;10379297;28;20037;-56
2022/07/15 07:15:56;;;;;;;5.05;2.90;;;;;;;21.78;46.35;97599.88;10363444;28;20028;-56
2022/07/15 07:20:56;;;;;;;6.30;2.95;;;;;;;22.05;47.22;97591.53;10354967;28;20099;-55
2022/07/15 07:25:55;;;;;;;3.80;2.47;;;;;;;22.28;45.31;97593.88;10378375;28;20146;-55
2022/07/15 07:30:54;;;;;;;5.80;2.88;;;;;;;22.54;45.21;97591.69;10373923;28;20450;-56
2022/07/15 07:35:53;;;;;;;5.55;2.72;;;;;;;22.77;46.15;97588.72;10378748;28;20068;-55
2022/07/15 07:40:53;;;;;;;6.85;2.75;;;;;;;23.05;45.87;97584.59;10365952;28;20069;-55
2022/07/15 07:45:51;;;;;;;6.05;2.65;;;;;;;23.27;45.56;97586.91;10352699;28;20099;-55
2022/07/15 07:50:53;;;;;;;3.17;2.38;;;;;;;23.54;47.09;97587.22;10357113;28;20033;-55
2022/07/15 07:55:52;;;;;;;5.75;3.08;;;;;;;23.82;45.71;97575.06;10356509;28;20064;-55
2022/07/15 08:00:52;;;;;;;4.95;2.67;;;;;;;24.04;45.02;97582.59;10377474;28;20044;-55
2022/07/15 08:05:53;;;;;;;5.63;2.38;;;;;;;24.34;44.46;97582.63;10377132;28;20076;-55
2022/07/15 08:10:55;;;;;;;2.60;2.30;;;;;;;24.64;44.85;97576.44;10376832;28;20072;-55
2022/07/15 08:15:56;;;;;;;7.15;3.28;;;;;;;24.84;44.91;97578.69;10373262;28;20061;-55
2022/07/15 08:20:55;;;;;;;2.70;2.50;;;;;;;25.02;43.87;97574.09;10370810;28;20064;-55
2022/07/15 08:25:54;;;;;;;2.65;2.45;;;;;;;25.22;43.39;97567.53;10375151;28;20090;-55
2022/07/15 08:30:53;;;;;;;3.33;2.40;;;;;;;25.51;42.37;97560.34;10368964;28;20029;-55
2022/07/15 08:35:52;;;;;;;3.70;2.90;;;;;;;25.68;41.20;97561.09;10341950;28;20029;-55
2022/07/15 08:40:51;;;;;;;4.00;2.50;;;;;;;25.95;40.94;97556.59;10378616;28;20072;-56
2022/07/15 08:45:51;;;;;;;4.88;2.30;;;;;;;26.25;38.61;97549.34;10343283;28;20041;-55
2022/07/15 08:50:51;;;;;;;3.80;2.50;;;;;;;26.58;37.68;97551.50;10355353;28;20076;-55
2022/07/15 08:55:49;;;;;;;3.08;2.22;;;;;;;26.75;34.84;97545.00;10360064;28;20056;-55
2022/07/15 09:00:49;;;;;;;2.55;1.92;;;;;;;26.93;35.28;97545.53;10361967;28;20140;-55
2022/07/15 09:05:48;;;;;;;3.90;2.00;;;;;;;27.14;33.91;97535.16;10350569;28;20076;-56
2022/07/15 09:10:51;;;;;;;3.65;1.70;;;;;;;27.22;31.60;97538.16;10351658;28;20103;-55
2022/07/15 09:15:50;;;;;;;3.30;1.58;;;;;;;27.29;30.99;97533.22;10368882;28;20052;-55
2022/07/15 09:20:51;;;;;;;1.90;1.80;;;;;;;27.49;29.82;97535.28;10358328;28;20064;-56
2022/07/15 09:25:51;;;;;;;2.30;1.80;;;;;;;27.68;30.78;97539.28;10364252;28;20060;-55
2022/07/15 09:36:20;;;;;;;4.55;2.10;;;;;;;28.07;30.84;97530.13;10368473;28;20648;-55
2022/07/15 09:41:36;;;;;;;3.60;2.10;;;;;;;28.31;30.35;97529.22;10349114;28;20068;-55
2022/07/15 09:46:47;;;;;;;3.03;1.85;;;;;;;28.43;30.38;97529.16;10350011;28;20075;-56
2022/07/15 09:51:54;;;;;;;6.88;2.05;;;;;;;28.55;30.31;97535.34;10354147;28;20481;-56
2022/07/15 09:56:53;;;;;;;3.47;2.10;;;;;;;28.66;30.19;97530.03;10371444;28;20061;-56
2022/07/15 10:01:52;;;;;;;3.28;2.35;;;;;;;28.73;29.61;97526.88;10371650;28;20512;-56
2022/07/15 10:06:53;;;;;;;3.65;1.95;;;;;;;28.73;29.58;97521.56;10378793;28;20056;-55
2022/07/15 10:11:56;;;;;;;2.30;2.10;;;;;;;28.74;28.45;97517.94;10378198;28;20064;-55
2022/07/15 10:17:04;;;;;;;6.53;2.38;;;;;;;28.92;28.24;97513.75;10378678;28;20056;-56
2022/07/15 10:22:02;;;;;;;3.13;2.65;;;;;;;28.94;27.73;97511.81;10378086;28;20053;-56
2022/07/15 10:27:33;;;;;;;2.33;2.10;;;;;;;29.11;27.74;97506.94;10378854;28;20032;-55
2022/07/15 10:33:03;;;;;;;3.10;2.15;;;;;;;29.38;28.57;97501.22;10378266;28;20064;-56
2022/07/15 10:38:29;;;;;;;4.80;2.40;;;;;;;29.65;26.94;97498.13;10359976;28;20073;-56
2022/07/15 10:43:42;;;;;;;3.47;1.90;;;;;;;29.73;25.43;97497.47;10362162;28;20069;-56
2022/07/15 10:48:42;;;;;;;2.53;2.30;;;;;;;29.90;25.74;97488.91;10362325;28;20067;-56
2022/07/15 10:53:46;;;;;;;3.28;2.00;;;;;;;30.03;25.84;97472.69;10361977;28;20049;-56
2022/07/15 10:59:07;;;;;;;4.05;2.30;;;;;;;30.08;25.68;97491.84;10356182;28;20072;-56
2022/07/15 11:04:19;;;;;;;3.80;2.17;;;;;;;30.02;23.94;97476.31;10362697;28;20060;-56
2022/07/15 11:09:57;;;;;;;4.95;2.55;;;;;;;30.05;22.92;97476.06;10359698;28;20067;-56
2022/07/15 11:15:12;;;;;;;2.10;2.00;;;;;;;30.15;23.38;97471.63;10358930;28;20531;-56
2022/07/15 11:20:15;;;;;;;3.92;2.30;;;;;;;30.25;24.73;97472.53;10358295;28;20060;-56
2022/07/15 11:25:32;;;;;;;2.92;1.80;;;;;;;30.18;25.03;97470.50;10355619;28;20056;-55
2022/07/15 11:30:39;;;;;;;2.70;1.90;;;;;;;30.29;25.52;97468.59;10358489;28;20068;-56
2022/07/15 11:36:02;;;;;;;2.22;1.80;;;;;;;30.19;25.04;97473.06;10361620;28;20060;-56
2022/07/15 11:46:24;;;;;;;3.67;2.80;;;;;;;30.04;24.92;97452.97;10366338;28;20491;-56
2022/07/15 11:51:28;;;;;;;6.25;4.47;;;;;;;30.22;25.79;97464.75;10368524;28;20475;-56
2022/07/15 11:56:27;;;;;;;5.72;4.53;;;;;;;30.27;25.14;97459.84;10339396;28;20061;-56
2022/07/15 12:01:28;;;;;;;2.75;2.47;;;;;;;30.28;25.06;97456.22;10339889;28;20095;-56
2022/07/15 12:06:31;;;;;;;4.65;2.38;;;;;;;30.36;24.89;97446.66;10338318;28;20057;-56
2022/07/15 12:11:33;;;;;;;2.63;2.42;;;;;;;30.53;25.24;97444.22;10339059;28;20061;-56
2022/07/15 12:16:34;;;;;;;4.65;2.92;;;;;;;30.67;24.07;97456.41;10339301;28;20443;-56
2022/07/15 12:21:34;;;;;;;4.97;3.00;;;;;;;30.65;24.45;97446.81;10339042;28;20061;-58
2022/07/15 12:26:38;;;;;;;2.75;2.20;;;;;;;30.73;24.67;97452.38;10352025;28;20437;-57
2022/07/15 12:31:39;;;;;;;2.58;2.33;;;;;;;30.74;24.21;97440.66;10354547;28;20073;-57
2022/07/15 12:36:38;;;;;;;3.22;2.75;;;;;;;31.02;24.13;97444.44;10348147;28;20071;-57
2022/07/15 12:41:40;;;;;;;2.45;2.00;;;;;;;31.11;24.18;97438.25;10356060;28;20033;-57
2022/07/15 12:46:56;;;;;;;3.00;1.80;;;;;;;31.23;24.39;97438.97;10355247;28;20449;-57
2022/07/15 12:51:55;;;;;;;10.70;2.75;;;;;;;31.51;25.06;97423.06;10370805;28;20057;-56
2022/07/15 12:56:54;;;;;;;5.20;1.90;;;;;;;31.63;23.54;97434.50;10372364;28;20032;-56
2022/07/15 13:02:03;;;;;;;2.45;1.83;;;;;;;31.56;23.56;97431.53;10372727;28;20450;-56
2022/07/15 13:07:02;;;;;;;4.47;1.98;;;;;;;31.66;23.59;97439.59;10372944;28;20065;-57
2022/07/15 13:12:02;;;;;;;2.88;2.10;;;;;;;31.55;23.43;97451.31;10372564;28;20128;-57
2022/07/15 13:17:00;;;;;;;3.50;2.20;;;;;;;31.31;23.50;97427.53;10372337;28;20064;-56
2022/07/15 13:22:00;;;;;;;3.78;2.00;;;;;;;31.54;23.66;97429.00;10372682;28;20060;-57
2022/07/15 13:26:59;;;;;;;3.05;1.90;;;;;;;31.26;23.84;97443.19;10371963;28;20091;-57
2022/07/15 13:31:58;;;;;;;2.42;2.22;;;;;;;31.32;23.71;97434.63;10371931;28;20025;-57
2022/07/15 13:36:57;;;;;;;2.10;1.70;;;;;;;31.30;24.00;97433.91;10375490;28;20112;-57
2022/07/15 13:41:56;;;;;;;4.72;1.95;;;;;;;31.38;23.21;97428.66;10385619;28;20032;-56
2022/07/15 13:46:56;;;;;;;2.60;1.60;;;;;;;31.49;23.07;97435.75;10385122;28;20123;-57
2022/07/15 13:51:55;;;;;;;2.03;1.70;;;;;;;31.42;22.71;97435.44;10385291;28;20476;-57
2022/07/15 13:56:54;;;;;;;4.25;1.92;;;;;;;31.67;22.66;97438.59;10386249;28;20607;-57
2022/07/15 14:01:53;;;;;;;2.22;1.90;;;;;;;31.42;22.56;97434.63;10387260;28;20653;-57
2022/07/15 14:06:52;;;;;;;1.70;1.60;;;;;;;31.34;22.25;97428.13;10375832;28;20073;-57
2022/07/15 14:11:51;;;;;;;1.90;1.60;;;;;;;31.43;21.37;97430.94;10375229;28;20120;-57
2022/07/15 14:16:52;;;;;;;2.10;1.70;;;;;;;31.57;20.47;97428.72;10388156;28;20064;-57
2022/07/15 14:21:51;;;;;;;3.72;2.20;;;;;;;31.94;21.64;97429.81;10381599;28;20053;-56
2022/07/15 14:26:50;;;;;;;5.18;2.05;;;;;;;31.88;21.98;97423.19;10367380;28;20056;-57
2022/07/15 14:31:49;;;;;;;2.05;1.65;;;;;;;31.82;22.56;97426.44;10368781;28;20456;-57
2022/07/15 14:36:48;;;;;;;3.60;1.80;;;;;;;31.83;22.26;97429.97;10368566;28;20492;-57
2022/07/15 14:41:47;;;;;;;1.83;1.58;;;;;;;31.88;22.17;97433.09;10377158;28;20040;-57
2022/07/15 14:46:46;;;;;;;3.70;1.98;;;;;;;31.82;22.25;97425.59;10387840;28;20463;-56
2022/07/15 14:51:45;;;;;;;2.10;1.90;;;;;;;31.61;23.25;97429.28;10342106;28;20053;-57
2022/07/15 14:56:44;;;;;;;2.13;1.92;;;;;;;31.57;23.14;97419.84;10340115;28;20091;-57
2022/07/15 15:01:43;;;;;;;4.07;2.20;;;;;;;31.78;22.98;97425.06;10339677;28;20040;-57
2022/07/15 15:06:42;;;;;;;5.35;3.22;;;;;;;31.74;23.51;97429.84;10339762;28;20128;-54
2022/07/15 15:11:41;;;;;;;8.98;4.95;;;;;;;31.62;23.64;97425.63;10339736;28;20120;-54
2022/07/15 15:16:40;;;;;;;6.13;3.40;;;;;;;31.48;22.91;97417.97;10340173;28;20500;-54
2022/07/15 15:21:39;;;;;;;5.55;2.28;;;;;;;31.55;23.53;97419.97;10339429;28;20069;-55
2022/07/15 15:26:39;;;;;;;5.85;3.03;;;;;;;31.55;23.74;97417.28;10338698;28;20128;-54
2022/07/15 15:31:38;;;;;;;3.30;2.30;;;;;;;31.35;24.49;97412.88;10335314;28;20073;-54
2022/07/15 15:36:37;;;;;;;3.40;2.47;;;;;;;31.17;25.32;97416.25;10335317;28;20057;-57
2022/07/15 15:41:36;;;;;;;5.05;3.05;;;;;;;31.21;25.33;97421.34;10334673;28;20045;-55
2022/07/15 15:46:35;;;;;;;8.02;5.28;;;;;;;31.18;24.86;97422.47;10334721;28;20527;-57
2022/07/15 15:51:34;;;;;;;12.30;6.25;;;;;;;31.12;25.13;97426.56;10336788;28;20434;-55
2022/07/15 15:56:33;;;;;;;6.57;3.90;;;;;;;31.05;25.69;97428.06;10334912;28;20033;-55
2022/07/15 16:01:32;;;;;;;3.20;2.28;;;;;;;31.09;25.38;97436.69;10353276;28;20048;-55
2022/07/15 16:06:31;;;;;;;7.00;3.60;;;;;;;30.94;24.73;97422.81;10373284;28;20060;-55
2022/07/15 16:11:30;;;;;;;7.22;4.80;;;;;;;30.85;24.83;97435.19;10375314;28;20064;-55
2022/07/15 16:16:29;;;;;;;10.07;4.75;;;;;;;30.85;24.43;97437.03;10375085;28;20023;-55
2022/07/15 16:26:47;;;;;;;10.63;5.28;;;;;;;30.89;25.26;97439.31;10359948;28;20116;-56
2022/07/15 16:31:46;;;;;;;8.68;4.93;;;;;;;30.85;24.64;97437.03;10335545;28;20068;-56
2022/07/15 16:36:44;;;;;;;7.18;4.80;;;;;;;30.73;24.66;97418.38;10332951;28;20037;-55
2022/07/15 16:41:43;;;;;;;10.63;6.90;;;;;;;30.63;24.94;97438.06;10331339;28;20425;-56
2022/07/15 16:46:42;;;;;;;9.73;5.75;;;;;;;30.66;25.22;97435.97;10331196;28;20041;-56
2022/07/15 16:51:41;;;;;;;8.23;4.15;;;;;;;30.71;25.62;97440.94;10367799;28;20039;-55
2022/07/15 16:56:40;;;;;;;11.07;6.00;;;;;;;30.66;25.69;97438.66;10338862;28;20045;-56
2022/07/15 17:01:39;;;;;;;8.30;4.07;;;;;;;30.58;25.74;97440.31;10372518;28;20033;-56
2022/07/15 17:06:38;;;;;;;10.77;5.43;;;;;;;30.52;26.05;97439.88;10372444;28;20486;-55
2022/07/15 17:11:38;;;;;;;6.38;3.65;;;;;;;30.37;26.78;97441.16;10369465;28;20076;-56
2022/07/15 17:16:37;;;;;;;11.57;4.72;;;;;;;30.11;29.10;97446.94;10371408;28;20056;-55
2022/07/15 17:21:36;;;;;;;6.70;4.47;;;;;;;29.89;30.97;97450.59;10370233;28;20068;-55
2022/07/15 17:26:35;;;;;;;6.90;3.53;;;;;;;29.55;31.73;97454.38;10372606;28;20514;-55
2022/07/15 17:31:35;;;;;;;6.97;3.30;;;;;;;29.23;32.57;97447.19;10367157;28;20064;-55
2022/07/15 17:36:34;;;;;;;8.35;3.40;;;;;;;28.88;33.16;97458.91;10372323;28;20079;-55
2022/07/15 17:41:33;;;;;;;7.28;3.20;;;;;;;28.53;33.42;97462.53;10371398;28;20044;-55
2022/07/15 17:46:32;;;;;;;6.70;3.08;;;;;;;28.17;33.39;97472.47;10371377;28;20068;-55
2022/07/15 17:51:31;;;;;;;5.55;2.70;;;;;;;27.81;33.68;97463.59;10371668;28;20071;-56
2022/07/15 17:56:31;;;;;;;3.83;3.15;;;;;;;27.43;34.62;97469.09;10371440;28;20556;-56
2022/07/15 18:01:30;;;;;;;6.22;2.95;;;;;;;27.04;35.42;97478.22;10365927;28;20068;-55
2022/07/15 18:06:29;;;;;;;3.78;2.67;;;;;;;26.62;36.86;97485.59;10371525;28;20076;-55
2022/07/15 18:11:28;;;;;;;5.47;3.35;;;;;;;26.24;38.21;97497.13;10371193;28;20033;-56
2022/07/15 18:16:27;;;;;;;6.88;3.30;;;;;;;25.90;38.70;97502.91;10371382;28;20060;-56
2022/07/15 18:21:26;;;;;;;5.55;3.08;;;;;;;25.54;39.64;97500.88;10371492;28;20482;-56
2022/07/15 18:26:25;;;;;;;5.70;3.30;;;;;;;25.21;40.31;97509.19;10376269;28;20095;-56
2022/07/15 18:31:24;;;;;;;13.07;4.38;;;;;;;24.86;41.66;97515.78;10373716;28;20387;-56
2022/07/15 18:36:23;;;;;;;10.43;4.20;;;;;;;24.61;43.07;97520.88;10378695;28;20021;-56
2022/07/15 18:41:22;;;;;;;7.40;3.90;;;;;;;24.30;44.46;97527.22;10377490;28;20044;-56
2022/07/15 18:46:21;;;;;;;13.40;4.57;;;;;;;24.04;45.01;97532.25;10377779;28;20057;-56
2022/07/15 18:51:20;;;;;;;22.15;7.55;;;;;;;23.83;45.58;97543.16;10377479;28;20504;-56
2022/07/15 18:56:19;;;;;;;15.40;8.20;;;;;;;23.62;46.13;97534.66;10377606;28;20428;-56
2022/07/15 19:01:19;;;;;;;22.40;10.73;;;;;;;23.39;46.76;97538.56;10377091;28;20488;-56
2022/07/15 19:06:18;;;;;;;16.77;7.38;;;;;;;23.28;46.19;97548.94;10372024;28;20056;-56
2022/07/15 19:11:17;;;;;;;14.50;6.75;;;;;;;23.11;45.47;97562.22;10375361;28;20076;-56
2022/07/15 19:16:17;;;;;;;12.88;6.50;;;;;;;23.04;45.32;97569.63;10376996;28;20060;-56
2022/07/15 19:21:16;;;;;;;13.68;6.63;;;;;;;22.96;45.18;97567.41;10376315;28;20446;-56
2022/07/15 19:26:15;;;;;;;11.88;6.47;;;;;;;22.83;45.38;97555.78;10375318;28;20087;-56
2022/07/15 19:31:14;;;;;;;5.57;4.05;;;;;;;22.79;45.24;97578.91;10379665;28;20075;-56
2022/07/15 19:36:13;;;;;;;7.95;5.13;;;;;;;22.72;45.50;97584.59;10374297;28;20072;-56
2022/07/15 19:41:14;;;;;;;22.75;13.73;;;;;;;22.59;46.76;97593.16;10379376;28;20045;-56
2022/07/15 19:46:13;;;;;;;27.02;12.95;;;;;;;22.44;49.81;97587.81;10378840;28;20068;-56
2022/07/15 19:51:13;;;;;;;19.42;11.23;;;;;;;22.32;50.46;97594.56;10378727;28;20091;-56
2022/07/15 19:56:12;;;;;;;19.08;10.25;;;;;;;22.21;50.54;97597.78;10378970;28;20069;-56
2022/07/15 20:01:11;;;;;;;13.70;7.75;;;;;;;22.02;50.61;97599.63;10378419;28;20098;-56
2022/07/15 20:06:10;;;;;;;11.85;6.57;;;;;;;21.90;52.08;97601.06;10373001;28;20094;-56
2022/07/15 20:11:10;;;;;;;10.27;6.47;;;;;;;21.74;52.21;97604.44;10378836;28;20428;-57
2022/07/15 20:16:09;;;;;;;10.32;6.50;;;;;;;21.47;52.85;97605.75;10377499;28;20075;-57
2022/07/15 20:21:08;;;;;;;13.25;7.30;;;;;;;21.34;53.57;97616.06;10377719;28;20035;-56
2022/07/15 20:26:07;;;;;;;12.90;7.20;;;;;;;21.18;54.13;97615.88;10377940;28;20073;-57
2022/07/15 20:31:06;;;;;;;18.27;9.93;;;;;;;21.06;55.14;97608.53;10373519;28;20072;-57
2022/07/15 20:36:05;;;;;;;15.93;9.80;;;;;;;20.87;56.53;97617.25;10370357;28;20490;-56
2022/07/15 20:41:04;;;;;;;19.90;11.55;;;;;;;20.73;56.82;97626.69;10372209;28;20091;-56
2022/07/15 20:46:03;;;;;;;25.05;15.90;;;;;;;20.61;57.98;97621.06;10372167;28;20060;-56
2022/07/15 20:51:03;;;;;;;43.60;25.10;;;;;;;20.36;60.04;97626.50;10372906;28;20095;-57
2022/07/15 20:56:02;;;;;;;41.65;21.65;;;;;;;20.24;59.84;97638.41;10372887;28;20057;-57
2022/07/15 21:01:01;;;;;;;20.42;11.63;;;;;;;20.04;60.17;97625.19;10370754;28;20057;-56
2022/07/15 21:06:00;;;;;;;17.98;11.80;;;;;;;19.98;59.91;97628.09;10372389;28;20060;-56
2022/07/15 21:11:00;;;;;;;24.25;12.32;;;;;;;19.96;59.97;97635.22;10367171;28;20060;-56
2022/07/15 21:15:59;;;;;;;24.73;12.82;;;;;;;19.86;60.38;97642.59;10372599;28;20064;-56
2022/07/15 21:20:58;;;;;;;27.08;15.88;;;;;;;19.75;61.26;97640.41;10372519;28;20048;-56
2022/07/15 21:31:15;;;;;;;29.10;17.55;;;;;;;19.56;61.84;97642.06;10372111;28;20468;-56
2022/07/15 21:36:14;;;;;;;24.38;15.27;;;;;;;19.50;62.54;97643.09;10371999;28;20064;-56
2022/07/15 21:41:13;;;;;;;21.08;12.57;;;;;;;19.45;63.09;97635.38;10366681;28;20083;-56
2022/07/15 21:46:12;;;;;;;25.05;13.25;;;;;;;19.40;63.54;97639.13;10371352;28;20033;-56
2022/07/15 21:51:11;;;;;;;30.20;17.45;;;;;;;19.30;64.42;97633.38;10371818;28;20057;-56
2022/07/15 21:56:10;;;;;;;25.08;15.10;;;;;;;19.22;64.51;97632.78;10371500;28;20057;-56
2022/07/15 22:01:09;;;;;;;21.58;13.23;;;;;;;19.19;64.53;97641.66;10378811;28;20499;-56
2022/07/15 22:06:09;;;;;;;17.63;11.55;;;;;;;19.06;64.93;97644.78;10380223;28;20048;-56
2022/07/15 22:11:08;;;;;;;19.70;11.00;;;;;;;18.90;65.66;97639.22;10379167;28;20068;-56
2022/07/15 22:16:07;;;;;;;25.77;13.73;;;;;;;18.78;66.07;97643.16;10378803;28;20065;-56
2022/07/15 22:21:08;;;;;;;28.20;15.88;;;;;;;18.61;66.35;97639.31;10379426;28;20045;-56
2022/07/15 22:26:08;;;;;;;34.35;19.50;;;;;;;18.46;67.10;97639.88;10378481;28;20075;-56
2022/07/15 22:31:07;;;;;;;38.58;23.65;;;;;;;18.36;67.26;97644.59;10381461;28;20473;-56
2022/07/15 22:36:06;;;;;;;41.17;26.38;;;;;;;18.32;68.25;97636.88;10382264;28;20482;-56
2022/07/15 22:41:05;;;;;;;39.92;25.80;;;;;;;18.30;68.41;97643.94;10381221;28;20080;-56
2022/07/15 22:46:05;;;;;;;41.33;23.25;;;;;;;18.22;69.13;97643.31;10381184;28;20071;-56
2022/07/15 22:51:04;;;;;;;26.23;16.02;;;;;;;18.13;68.97;97628.75;10381600;28;20476;-56
2022/07/15 22:56:03;;;;;;;26.90;17.27;;;;;;;18.12;69.43;97638.38;10364229;28;20456;-56
2022/07/15 23:01:02;;;;;;;29.98;18.02;;;;;;;18.14;69.41;97648.84;10372400;28;20060;-56
2022/07/15 23:06:01;;;;;;;18.05;10.95;;;;;;;18.10;69.27;97653.31;10382277;28;20037;-56
2022/07/15 23:10:59;;;;;;;;;;;;;;;18.05;69.50;97652.63;10378156;28;20115;-56
2022/07/15 23:15:58;;;;;;;12.00;6.00;;;;;;;17.96;69.50;97645.03;10381867;28;19908;-56
2022/07/15 23:20:57;;;;;;;9.50;5.07;;;;;;;17.86;69.37;97656.75;10382705;28;20032;-56
2022/07/15 23:25:56;;;;;;;7.68;5.28;;;;;;;17.76;69.28;97657.03;10379491;28;20060;-56
2022/07/15 23:30:56;;;;;;;8.05;5.60;;;;;;;17.67;69.61;97673.03;10368106;28;20056;-56
2022/07/15 23:35:55;;;;;;;16.00;10.32;;;;;;;17.64;69.63;97669.66;10358399;28;20057;-56